sensor_id;sensor_type;location;lat;lon;timestamp;pressure;altitude;pressure_sealevel;temperature;humidity
10806;BME280;5455;53.224;6.000;2023-05-29T00:01:52;102600.44;;;9.37;100.00
10806;BME280;5455;53.224;6.000;2023-05-29T00:04:19;102591.19;;;9.33;100.00
10806;BME280;5455;53.224;6.000;2023-05-29T00:06:48;102589.88;;;9.31;100.00
10806;BME280;5455;53.224;6.000;2023-05-29T00:09:15;102587.41;;;9.29;100.00
10806;BME280;5455;53.224;6.000;2023-05-29T00:11:43;102599.84;;;9.27;100.00
10806;BME280;5455;53.224;6.000;2023-05-29T00:14:10;102591.88;;;9.25;100.00
10806;BME280;5455;53.224;6.000;2023-05-29T00:16:40;102599.97;;;9.22;100.00
10806;BME280;5455;53.224;6.000;2023-05-29T00:19:07;102601.69;;;9.18;100.00
10806;BME280;5455;53.224;6.000;2023-05-29T00:21:35;102606.69;;;9.16;100.00
10806;BME280;5455;53.224;6.000;2023-05-29T00:24:03;102590.81;;;9.13;100.00
10806;BME280;5455;53.224;6.000;2023-05-29T00:26:29;102587.03;;;9.09;100.00
10806;BME280;5455;53.224;6.000;2023-05-29T00:28:57;102592.03;;;9.07;100.00
10806;BME280;5455;53.224;6.000;2023-05-29T00:31:24;102593.97;;;9.06;100.00
10806;BME280;5455;53.224;6.000;2023-05-29T00:33:51;102598.84;;;9.09;100.00
10806;BME280;5455;53.224;6.000;2023-05-29T00:36:18;102599.47;;;9.06;100.00
10806;BME280;5455;53.224;6.000;2023-05-29T00:38:45;102599.13;;;9.08;100.00
10806;BME280;5455;53.224;6.000;2023-05-29T00:41:14;102599.34;;;9.11;100.00
10806;BME280;5455;53.224;6.000;2023-05-29T00:43:42;102612.50;;;9.14;100.00
10806;BME280;5455;53.224;6.000;2023-05-29T00:46:13;102615.56;;;9.13;100.00
10806;BME280;5455;53.224;6.000;2023-05-29T00:48:41;102621.47;;;9.06;100.00
10806;BME280;5455;53.224;6.000;2023-05-29T00:51:10;102619.53;;;9.07;100.00
10806;BME280;5455;53.224;6.000;2023-05-29T00:53:40;102616.19;;;9.10;100.00
10806;BME280;5455;53.224;6.000;2023-05-29T00:56:09;102628.19;;;9.14;100.00
10806;BME280;5455;53.224;6.000;2023-05-29T00:58:37;102630.66;;;9.15;100.00
10806;BME280;5455;53.224;6.000;2023-05-29T01:01:04;102619.94;;;9.14;100.00
10806;BME280;5455;53.224;6.000;2023-05-29T01:03:33;102625.53;;;9.09;100.00
10806;BME280;5455;53.224;6.000;2023-05-29T01:06:02;102629.41;;;9.08;100.00
10806;BME280;5455;53.224;6.000;2023-05-29T01:08:30;102626.03;;;9.11;100.00
10806;BME280;5455;53.224;6.000;2023-05-29T01:11:05;102623.09;;;9.21;100.00
10806;BME280;5455;53.224;6.000;2023-05-29T01:13:36;102628.41;;;9.31;100.00
10806;BME280;5455;53.224;6.000;2023-05-29T01:16:19;102633.59;;;9.32;100.00
10806;BME280;5455;53.224;6.000;2023-05-29T01:24:14;102630.75;;;9.24;100.00
10806;BME280;5455;53.224;6.000;2023-05-29T01:29:18;102618.91;;;9.23;100.00
10806;BME280;5455;53.224;6.000;2023-05-29T01:31:49;102610.03;;;9.26;100.00
10806;BME280;5455;53.224;6.000;2023-05-29T01:34:17;102606.88;;;9.33;100.00
10806;BME280;5455;53.224;6.000;2023-05-29T01:36:44;102611.38;;;9.43;100.00
10806;BME280;5455;53.224;6.000;2023-05-29T01:39:13;102613.72;;;9.49;100.00
10806;BME280;5455;53.224;6.000;2023-05-29T01:41:42;102614.28;;;9.60;100.00
10806;BME280;5455;53.224;6.000;2023-05-29T01:44:11;102608.47;;;9.61;100.00
10806;BME280;5455;53.224;6.000;2023-05-29T01:46:41;102618.69;;;9.61;100.00
10806;BME280;5455;53.224;6.000;2023-05-29T01:49:09;102622.88;;;9.58;100.00
10806;BME280;5455;53.224;6.000;2023-05-29T01:51:39;102611.31;;;9.56;100.00
10806;BME280;5455;53.224;6.000;2023-05-29T01:54:07;102610.84;;;9.54;100.00
10806;BME280;5455;53.224;6.000;2023-05-29T01:56:35;102608.91;;;9.55;100.00
10806;BME280;5455;53.224;6.000;2023-05-29T01:59:03;102614.09;;;9.56;100.00
10806;BME280;5455;53.224;6.000;2023-05-29T02:01:31;102618.16;;;9.59;100.00
10806;BME280;5455;53.224;6.000;2023-05-29T02:03:58;102623.56;;;9.64;100.00
10806;BME280;5455;53.224;6.000;2023-05-29T02:06:26;102621.19;;;9.71;100.00
10806;BME280;5455;53.224;6.000;2023-05-29T02:08:53;102628.22;;;9.77;100.00
10806;BME280;5455;53.224;6.000;2023-05-29T02:11:19;102636.38;;;9.82;100.00
10806;BME280;5455;53.224;6.000;2023-05-29T02:13:47;102643.69;;;9.86;100.00
10806;BME280;5455;53.224;6.000;2023-05-29T02:16:14;102622.16;;;9.88;100.00
10806;BME280;5455;53.224;6.000;2023-05-29T02:18:42;102628.00;;;9.87;100.00
10806;BME280;5455;53.224;6.000;2023-05-29T02:21:10;102638.31;;;9.81;100.00
10806;BME280;5455;53.224;6.000;2023-05-29T02:23:38;102632.28;;;9.79;100.00
10806;BME280;5455;53.224;6.000;2023-05-29T02:26:05;102630.94;;;9.90;100.00
10806;BME280;5455;53.224;6.000;2023-05-29T02:28:32;102631.94;;;9.94;100.00
10806;BME280;5455;53.224;6.000;2023-05-29T02:30:59;102633.91;;;9.94;100.00
10806;BME280;5455;53.224;6.000;2023-05-29T02:33:26;102632.06;;;9.89;100.00
10806;BME280;5455;53.224;6.000;2023-05-29T02:35:53;102636.06;;;9.83;100.00
10806;BME280;5455;53.224;6.000;2023-05-29T02:38:20;102641.91;;;9.82;100.00
10806;BME280;5455;53.224;6.000;2023-05-29T02:40:47;102641.06;;;9.81;100.00
10806;BME280;5455;53.224;6.000;2023-05-29T02:43:14;102639.00;;;9.87;100.00
10806;BME280;5455;53.224;6.000;2023-05-29T02:45:41;102642.34;;;9.97;100.00
10806;BME280;5455;53.224;6.000;2023-05-29T02:48:08;102644.38;;;10.06;100.00
10806;BME280;5455;53.224;6.000;2023-05-29T02:50:36;102635.78;;;10.07;100.00
10806;BME280;5455;53.224;6.000;2023-05-29T02:53:03;102634.16;;;10.06;100.00
10806;BME280;5455;53.224;6.000;2023-05-29T02:55:31;102633.34;;;10.06;100.00
10806;BME280;5455;53.224;6.000;2023-05-29T02:57:59;102626.69;;;10.07;100.00
10806;BME280;5455;53.224;6.000;2023-05-29T03:00:28;102627.84;;;10.06;100.00
10806;BME280;5455;53.224;6.000;2023-05-29T03:02:57;102632.03;;;10.03;100.00
10806;BME280;5455;53.224;6.000;2023-05-29T03:05:25;102629.09;;;10.00;100.00
10806;BME280;5455;53.224;6.000;2023-05-29T03:07:52;102617.53;;;9.97;100.00
10806;BME280;5455;53.224;6.000;2023-05-29T03:10:20;102623.38;;;9.96;100.00
10806;BME280;5455;53.224;6.000;2023-05-29T03:12:47;102629.50;;;9.93;100.00
10806;BME280;5455;53.224;6.000;2023-05-29T03:15:14;102622.69;;;9.90;100.00
10806;BME280;5455;53.224;6.000;2023-05-29T03:17:41;102617.38;;;9.94;100.00
10806;BME280;5455;53.224;6.000;2023-05-29T03:20:13;102632.66;;;10.00;100.00
10806;BME280;5455;53.224;6.000;2023-05-29T03:22:40;102629.44;;;10.07;100.00
10806;BME280;5455;53.224;6.000;2023-05-29T03:25:08;102629.88;;;10.14;100.00
10806;BME280;5455;53.224;6.000;2023-05-29T03:27:36;102637.38;;;10.22;100.00
10806;BME280;5455;53.224;6.000;2023-05-29T03:30:11;102622.66;;;10.26;100.00
10806;BME280;5455;53.224;6.000;2023-05-29T03:32:38;102632.25;;;10.29;100.00
10806;BME280;5455;53.224;6.000;2023-05-29T03:35:06;102636.13;;;10.28;100.00
10806;BME280;5455;53.224;6.000;2023-05-29T03:37:34;102632.75;;;10.31;100.00
10806;BME280;5455;53.224;6.000;2023-05-29T03:40:01;102637.63;;;10.34;100.00
10806;BME280;5455;53.224;6.000;2023-05-29T03:42:28;102641.53;;;10.33;100.00
10806;BME280;5455;53.224;6.000;2023-05-29T03:44:58;102645.75;;;10.30;100.00
10806;BME280;5455;53.224;6.000;2023-05-29T03:47:25;102639.50;;;10.25;100.00
10806;BME280;5455;53.224;6.000;2023-05-29T03:49:53;102641.66;;;10.28;100.00
10806;BME280;5455;53.224;6.000;2023-05-29T03:52:20;102641.84;;;10.31;100.00
10806;BME280;5455;53.224;6.000;2023-05-29T03:54:47;102641.69;;;10.36;100.00
10806;BME280;5455;53.224;6.000;2023-05-29T03:57:15;102646.16;;;10.46;100.00
10806;BME280;5455;53.224;6.000;2023-05-29T03:59:43;102655.31;;;10.55;100.00
10806;BME280;5455;53.224;6.000;2023-05-29T04:02:10;102654.22;;;10.65;100.00
10806;BME280;5455;53.224;6.000;2023-05-29T04:04:41;102661.25;;;10.71;100.00
10806;BME280;5455;53.224;6.000;2023-05-29T04:07:10;102670.72;;;10.78;100.00
10806;BME280;5455;53.224;6.000;2023-05-29T04:09:37;102672.03;;;10.81;100.00
10806;BME280;5455;53.224;6.000;2023-05-29T04:12:05;102674.47;;;10.82;100.00
10806;BME280;5455;53.224;6.000;2023-05-29T04:14:33;102674.59;;;10.77;100.00
10806;BME280;5455;53.224;6.000;2023-05-29T04:17:00;102676.06;;;10.75;100.00
10806;BME280;5455;53.224;6.000;2023-05-29T04:19:27;102673.28;;;10.75;100.00
10806;BME280;5455;53.224;6.000;2023-05-29T04:21:54;102669.09;;;10.77;100.00
10806;BME280;5455;53.224;6.000;2023-05-29T04:24:21;102675.63;;;10.81;100.00
10806;BME280;5455;53.224;6.000;2023-05-29T04:26:48;102669.56;;;10.79;100.00
10806;BME280;5455;53.224;6.000;2023-05-29T04:29:15;102678.53;;;10.85;100.00
10806;BME280;5455;53.224;6.000;2023-05-29T04:31:44;102679.72;;;10.92;100.00
10806;BME280;5455;53.224;6.000;2023-05-29T04:34:11;102674.44;;;11.04;100.00
10806;BME280;5455;53.224;6.000;2023-05-29T04:36:44;102682.56;;;11.10;100.00
10806;BME280;5455;53.224;6.000;2023-05-29T04:39:12;102682.25;;;11.11;100.00
10806;BME280;5455;53.224;6.000;2023-05-29T04:41:40;102680.63;;;11.10;100.00
10806;BME280;5455;53.224;6.000;2023-05-29T04:44:11;102686.16;;;11.10;100.00
10806;BME280;5455;53.224;6.000;2023-05-29T04:46:45;102685.31;;;11.10;100.00
10806;BME280;5455;53.224;6.000;2023-05-29T04:49:14;102683.22;;;11.15;100.00
10806;BME280;5455;53.224;6.000;2023-05-29T04:51:41;102678.06;;;11.22;100.00
10806;BME280;5455;53.224;6.000;2023-05-29T04:54:10;102684.59;;;11.26;100.00
10806;BME280;5455;53.224;6.000;2023-05-29T04:56:38;102679.88;;;11.27;100.00
10806;BME280;5455;53.224;6.000;2023-05-29T04:59:12;102688.03;;;11.32;100.00
10806;BME280;5455;53.224;6.000;2023-05-29T05:01:40;102690.47;;;11.33;100.00
10806;BME280;5455;53.224;6.000;2023-05-29T05:04:10;102687.41;;;11.35;100.00
10806;BME280;5455;53.224;6.000;2023-05-29T05:06:37;102686.56;;;11.34;100.00
10806;BME280;5455;53.224;6.000;2023-05-29T05:09:05;102692.09;;;11.34;100.00
10806;BME280;5455;53.224;6.000;2023-05-29T05:11:33;102681.22;;;11.38;100.00
10806;BME280;5455;53.224;6.000;2023-05-29T05:14:01;102692.66;;;11.53;100.00
10806;BME280;5455;53.224;6.000;2023-05-29T05:16:29;102693.00;;;11.69;100.00
10806;BME280;5455;53.224;6.000;2023-05-29T05:18:56;102692.09;;;11.82;100.00
10806;BME280;5455;53.224;6.000;2023-05-29T05:21:23;102695.34;;;11.84;100.00
10806;BME280;5455;53.224;6.000;2023-05-29T05:23:52;102707.75;;;11.95;100.00
10806;BME280;5455;53.224;6.000;2023-05-29T05:26:25;102692.94;;;12.00;100.00
10806;BME280;5455;53.224;6.000;2023-05-29T05:28:54;102703.69;;;12.10;100.00
10806;BME280;5455;53.224;6.000;2023-05-29T05:31:23;102696.38;;;12.05;100.00
10806;BME280;5455;53.224;6.000;2023-05-29T05:33:51;102692.59;;;11.93;100.00
10806;BME280;5455;53.224;6.000;2023-05-29T05:36:18;102699.28;;;11.83;100.00
10806;BME280;5455;53.224;6.000;2023-05-29T05:38:47;102696.53;;;12.09;100.00
10806;BME280;5455;53.224;6.000;2023-05-29T05:41:14;102707.59;;;12.00;100.00
10806;BME280;5455;53.224;6.000;2023-05-29T05:43:41;102707.09;;;11.98;100.00
10806;BME280;5455;53.224;6.000;2023-05-29T05:46:16;102708.91;;;12.20;100.00
10806;BME280;5455;53.224;6.000;2023-05-29T05:48:45;102702.41;;;12.25;100.00
10806;BME280;5455;53.224;6.000;2023-05-29T05:51:13;102706.00;;;12.34;100.00
10806;BME280;5455;53.224;6.000;2023-05-29T05:53:41;102709.06;;;12.24;98.63
10806;BME280;5455;53.224;6.000;2023-05-29T05:56:09;102710.38;;;12.18;99.85
10806;BME280;5455;53.224;6.000;2023-05-29T05:58:36;102710.69;;;12.16;99.51
10806;BME280;5455;53.224;6.000;2023-05-29T06:01:04;102710.19;;;12.14;100.00
10806;BME280;5455;53.224;6.000;2023-05-29T06:03:34;102718.00;;;12.21;100.00
10806;BME280;5455;53.224;6.000;2023-05-29T06:06:06;102717.06;;;12.25;100.00
10806;BME280;5455;53.224;6.000;2023-05-29T06:08:37;102706.00;;;12.25;100.00
10806;BME280;5455;53.224;6.000;2023-05-29T06:11:05;102724.06;;;12.40;99.27
10806;BME280;5455;53.224;6.000;2023-05-29T06:13:34;102715.09;;;12.51;99.25
10806;BME280;5455;53.224;6.000;2023-05-29T06:16:09;102725.31;;;12.68;99.00
10806;BME280;5455;53.224;6.000;2023-05-29T06:18:36;102725.31;;;12.68;96.99
10806;BME280;5455;53.224;6.000;2023-05-29T06:21:03;102733.47;;;12.56;95.39
10806;BME280;5455;53.224;6.000;2023-05-29T06:23:32;102742.28;;;12.58;96.52
10806;BME280;5455;53.224;6.000;2023-05-29T06:26:02;102744.72;;;12.59;96.76
10806;BME280;5455;53.224;6.000;2023-05-29T06:28:30;102745.84;;;12.76;97.23
10806;BME280;5455;53.224;6.000;2023-05-29T06:30:57;102744.56;;;12.73;96.40
10806;BME280;5455;53.224;6.000;2023-05-29T06:33:25;102742.91;;;12.72;95.41
10806;BME280;5455;53.224;6.000;2023-05-29T06:35:52;102735.44;;;12.64;94.03
10806;BME280;5455;53.224;6.000;2023-05-29T06:38:20;102736.25;;;12.56;93.27
10806;BME280;5455;53.224;6.000;2023-05-29T06:40:47;102741.28;;;12.71;95.18
10806;BME280;5455;53.224;6.000;2023-05-29T06:43:14;102744.88;;;12.89;94.13
10806;BME280;5455;53.224;6.000;2023-05-29T06:45:46;102750.06;;;12.90;92.71
10806;BME280;5455;53.224;6.000;2023-05-29T06:48:13;102751.84;;;12.86;93.36
10806;BME280;5455;53.224;6.000;2023-05-29T06:50:42;102752.97;;;13.02;90.65
10806;BME280;5455;53.224;6.000;2023-05-29T06:53:28;102751.81;;;13.20;93.01
10806;BME280;5455;53.224;6.000;2023-05-29T06:55:56;102763.47;;;13.43;92.65
10806;BME280;5455;53.224;6.000;2023-05-29T06:58:24;102764.00;;;13.37;90.03
10806;BME280;5455;53.224;6.000;2023-05-29T07:00:51;102778.06;;;13.14;89.51
10806;BME280;5455;53.224;6.000;2023-05-29T07:03:27;102778.38;;;13.04;90.73
10806;BME280;5455;53.224;6.000;2023-05-29T07:05:56;102773.81;;;13.17;90.27
10806;BME280;5455;53.224;6.000;2023-05-29T07:08:24;102773.69;;;13.60;91.16
10806;BME280;5455;53.224;6.000;2023-05-29T07:10:52;102779.50;;;13.67;87.76
10806;BME280;5455;53.224;6.000;2023-05-29T07:13:20;102787.63;;;13.80;87.82
10806;BME280;5455;53.224;6.000;2023-05-29T07:15:50;102772.03;;;13.97;84.16
10806;BME280;5455;53.224;6.000;2023-05-29T07:18:21;102776.38;;;14.06;86.11
10806;BME280;5455;53.224;6.000;2023-05-29T07:20:50;102787.66;;;13.72;83.89
10806;BME280;5455;53.224;6.000;2023-05-29T07:23:19;102795.97;;;13.72;85.06
10806;BME280;5455;53.224;6.000;2023-05-29T07:25:46;102786.22;;;13.66;84.65
10806;BME280;5455;53.224;6.000;2023-05-29T07:28:13;102799.56;;;13.64;84.01
10806;BME280;5455;53.224;6.000;2023-05-29T07:30:47;102787.59;;;13.51;86.21
10806;BME280;5455;53.224;6.000;2023-05-29T07:33:14;102787.63;;;13.43;86.67
10806;BME280;5455;53.224;6.000;2023-05-29T07:35:43;102788.63;;;13.30;87.64
10806;BME280;5455;53.224;6.000;2023-05-29T07:38:10;102781.59;;;13.32;88.01
10806;BME280;5455;53.224;6.000;2023-05-29T07:40:39;102795.47;;;13.32;87.37
10806;BME280;5455;53.224;6.000;2023-05-29T07:43:08;102787.78;;;13.38;88.14
10806;BME280;5455;53.224;6.000;2023-05-29T07:45:48;102789.22;;;13.90;86.17
10806;BME280;5455;53.224;6.000;2023-05-29T07:48:16;102786.69;;;14.06;83.05
10806;BME280;5455;53.224;6.000;2023-05-29T07:50:43;102789.44;;;14.06;85.18
10806;BME280;5455;53.224;6.000;2023-05-29T07:53:10;102796.09;;;13.84;85.15
10806;BME280;5455;53.224;6.000;2023-05-29T07:55:38;102795.59;;;13.82;86.35
10806;BME280;5455;53.224;6.000;2023-05-29T07:58:05;102790.28;;;13.68;85.69
10806;BME280;5455;53.224;6.000;2023-05-29T08:00:33;102790.31;;;13.60;83.76
10806;BME280;5455;53.224;6.000;2023-05-29T08:03:03;102781.91;;;13.39;84.84
10806;BME280;5455;53.224;6.000;2023-05-29T08:05:30;102792.22;;;13.30;85.36
10806;BME280;5455;53.224;6.000;2023-05-29T08:08:05;102791.53;;;13.42;86.77
10806;BME280;5455;53.224;6.000;2023-05-29T08:10:34;102784.47;;;13.53;86.82
10806;BME280;5455;53.224;6.000;2023-05-29T08:13:02;102793.91;;;13.60;86.36
10806;BME280;5455;53.224;6.000;2023-05-29T08:15:31;102795.97;;;13.72;86.68
10806;BME280;5455;53.224;6.000;2023-05-29T08:17:59;102798.63;;;13.98;85.67
10806;BME280;5455;53.224;6.000;2023-05-29T08:20:27;102793.31;;;13.84;84.55
10806;BME280;5455;53.224;6.000;2023-05-29T08:22:54;102804.09;;;14.06;84.41
10806;BME280;5455;53.224;6.000;2023-05-29T08:25:21;102805.59;;;14.04;84.57
10806;BME280;5455;53.224;6.000;2023-05-29T08:27:48;102804.34;;;13.93;83.94
10806;BME280;5455;53.224;6.000;2023-05-29T08:30:15;102800.16;;;13.87;83.38
10806;BME280;5455;53.224;6.000;2023-05-29T08:32:42;102794.75;;;13.90;85.90
10806;BME280;5455;53.224;6.000;2023-05-29T08:35:09;102805.38;;;14.17;84.24
10806;BME280;5455;53.224;6.000;2023-05-29T08:37:37;102820.66;;;14.53;84.05
10806;BME280;5455;53.224;6.000;2023-05-29T08:40:05;102812.06;;;14.66;81.35
10806;BME280;5455;53.224;6.000;2023-05-29T08:42:42;102819.44;;;14.83;79.78
10806;BME280;5455;53.224;6.000;2023-05-29T08:45:13;102815.56;;;14.96;76.36
10806;BME280;5455;53.224;6.000;2023-05-29T08:47:41;102816.59;;;14.92;78.00
10806;BME280;5455;53.224;6.000;2023-05-29T08:50:14;102812.47;;;14.98;76.83
10806;BME280;5455;53.224;6.000;2023-05-29T08:52:42;102820.78;;;14.98;77.24
10806;BME280;5455;53.224;6.000;2023-05-29T08:55:09;102831.38;;;14.63;77.15
10806;BME280;5455;53.224;6.000;2023-05-29T08:57:36;102842.69;;;14.58;78.27
10806;BME280;5455;53.224;6.000;2023-05-29T09:00:05;102812.88;;;14.46;78.56
10806;BME280;5455;53.224;6.000;2023-05-29T09:02:39;102826.63;;;14.63;77.00
10806;BME280;5455;53.224;6.000;2023-05-29T09:05:07;102814.94;;;14.28;78.01
10806;BME280;5455;53.224;6.000;2023-05-29T09:07:36;102825.88;;;14.54;78.37
10806;BME280;5455;53.224;6.000;2023-05-29T09:10:07;102829.00;;;14.53;77.08
10806;BME280;5455;53.224;6.000;2023-05-29T09:12:35;102824.84;;;14.38;78.23
10806;BME280;5455;53.224;6.000;2023-05-29T09:15:02;102831.03;;;14.44;79.49
10806;BME280;5455;53.224;6.000;2023-05-29T09:17:31;102832.13;;;14.72;79.90
10806;BME280;5455;53.224;6.000;2023-05-29T09:19:59;102828.31;;;15.30;80.40
10806;BME280;5455;53.224;6.000;2023-05-29T09:22:27;102837.94;;;15.32;77.86
10806;BME280;5455;53.224;6.000;2023-05-29T09:24:54;102835.38;;;14.95;78.59
10806;BME280;5455;53.224;6.000;2023-05-29T09:27:21;102836.13;;;14.83;78.61
10806;BME280;5455;53.224;6.000;2023-05-29T09:29:48;102825.50;;;15.18;79.88
10806;BME280;5455;53.224;6.000;2023-05-29T09:32:17;102839.69;;;15.04;77.33
10806;BME280;5455;53.224;6.000;2023-05-29T09:34:45;102833.25;;;14.92;76.73
10806;BME280;5455;53.224;6.000;2023-05-29T09:37:13;102835.75;;;14.84;78.09
10806;BME280;5455;53.224;6.000;2023-05-29T09:39:45;102835.75;;;15.05;77.22
10806;BME280;5455;53.224;6.000;2023-05-29T09:42:16;102825.41;;;15.26;76.73
10806;BME280;5455;53.224;6.000;2023-05-29T09:44:46;102832.34;;;15.20;74.37
10806;BME280;5455;53.224;6.000;2023-05-29T09:47:17;102838.47;;;15.14;77.05
10806;BME280;5455;53.224;6.000;2023-05-29T09:49:45;102833.25;;;14.92;76.43
10806;BME280;5455;53.224;6.000;2023-05-29T09:52:20;102830.06;;;14.60;75.32
10806;BME280;5455;53.224;6.000;2023-05-29T09:54:48;102826.44;;;14.68;78.11
10806;BME280;5455;53.224;6.000;2023-05-29T09:57:16;102826.22;;;14.94;77.21
10806;BME280;5455;53.224;6.000;2023-05-29T09:59:44;102828.78;;;14.99;79.02
10806;BME280;5455;53.224;6.000;2023-05-29T10:02:11;102830.81;;;14.90;78.24
10806;BME280;5455;53.224;6.000;2023-05-29T10:04:40;102821.34;;;14.91;76.97
10806;BME280;5455;53.224;6.000;2023-05-29T10:07:12;102820.88;;;14.68;77.46
10806;BME280;5455;53.224;6.000;2023-05-29T10:09:44;102825.81;;;14.83;80.82
10806;BME280;5455;53.224;6.000;2023-05-29T10:12:16;102827.84;;;14.95;77.84
10806;BME280;5455;53.224;6.000;2023-05-29T10:14:46;102826.13;;;15.03;79.24
10806;BME280;5455;53.224;6.000;2023-05-29T10:17:17;102824.94;;;15.24;79.18
10806;BME280;5455;53.224;6.000;2023-05-29T10:19:46;102830.91;;;15.35;78.39
10806;BME280;5455;53.224;6.000;2023-05-29T10:22:17;102835.19;;;15.44;76.63
10806;BME280;5455;53.224;6.000;2023-05-29T10:24:48;102830.72;;;15.19;76.10
10806;BME280;5455;53.224;6.000;2023-05-29T10:27:16;102834.88;;;15.13;78.01
10806;BME280;5455;53.224;6.000;2023-05-29T10:30:02;102828.97;;;15.15;78.29
10806;BME280;5455;53.224;6.000;2023-05-29T10:35:25;102833.22;;;15.90;76.76
10806;BME280;5455;53.224;6.000;2023-05-29T10:38:02;102837.34;;;15.72;74.41
10806;BME280;5455;53.224;6.000;2023-05-29T10:40:36;102826.78;;;15.53;74.32
10806;BME280;5455;53.224;6.000;2023-05-29T10:43:03;102822.16;;;15.57;77.89
10806;BME280;5455;53.224;6.000;2023-05-29T10:50:40;102826.56;;;14.93;77.88
10806;BME280;5455;53.224;6.000;2023-05-29T10:53:09;102820.44;;;15.20;78.54
10806;BME280;5455;53.224;6.000;2023-05-29T10:55:40;102819.59;;;15.52;75.58
10806;BME280;5455;53.224;6.000;2023-05-29T10:58:08;102821.69;;;15.55;75.51
10806;BME280;5455;53.224;6.000;2023-05-29T11:00:40;102825.25;;;15.43;73.78
10806;BME280;5455;53.224;6.000;2023-05-29T11:03:15;102822.91;;;15.45;74.87
10806;BME280;5455;53.224;6.000;2023-05-29T11:05:59;102814.56;;;15.45;75.34
10806;BME280;5455;53.224;6.000;2023-05-29T11:08:42;102818.56;;;15.57;75.34
10806;BME280;5455;53.224;6.000;2023-05-29T11:11:12;102817.88;;;15.27;76.75
10806;BME280;5455;53.224;6.000;2023-05-29T11:13:39;102817.88;;;14.94;77.10
10806;BME280;5455;53.224;6.000;2023-05-29T11:18:52;102832.09;;;15.13;79.37
10806;BME280;5455;53.224;6.000;2023-05-29T11:24:37;102824.53;;;15.02;76.81
10806;BME280;5455;53.224;6.000;2023-05-29T11:27:05;102828.03;;;14.90;77.67
10806;BME280;5455;53.224;6.000;2023-05-29T11:29:35;102824.78;;;14.88;79.01
10806;BME280;5455;53.224;6.000;2023-05-29T11:32:06;102831.25;;;14.80;77.29
10806;BME280;5455;53.224;6.000;2023-05-29T11:34:39;102838.47;;;14.93;78.43
10806;BME280;5455;53.224;6.000;2023-05-29T11:37:07;102824.19;;;14.82;77.18
10806;BME280;5455;53.224;6.000;2023-05-29T11:39:38;102816.97;;;15.23;79.70
10806;BME280;5455;53.224;6.000;2023-05-29T11:42:06;102827.25;;;15.22;75.07
10806;BME280;5455;53.224;6.000;2023-05-29T11:44:33;102812.94;;;15.44;76.51
10806;BME280;5455;53.224;6.000;2023-05-29T11:47:05;102823.25;;;15.89;76.34
10806;BME280;5455;53.224;6.000;2023-05-29T11:49:35;102838.66;;;16.11;72.00
10806;BME280;5455;53.224;6.000;2023-05-29T11:52:07;102823.34;;;15.80;74.83
10806;BME280;5455;53.224;6.000;2023-05-29T11:54:43;102832.16;;;16.31;74.08
10806;BME280;5455;53.224;6.000;2023-05-29T11:57:19;102831.25;;;16.15;72.03
10806;BME280;5455;53.224;6.000;2023-05-29T11:59:50;102834.72;;;16.12;71.38
10806;BME280;5455;53.224;6.000;2023-05-29T12:02:19;102830.66;;;16.09;72.90
10806;BME280;5455;53.224;6.000;2023-05-29T12:05:03;102835.03;;;16.46;72.05
10806;BME280;5455;53.224;6.000;2023-05-29T12:07:31;102829.16;;;16.12;70.94
10806;BME280;5455;53.224;6.000;2023-05-29T12:10:09;102830.31;;;15.86;70.95
10806;BME280;5455;53.224;6.000;2023-05-29T12:12:37;102827.88;;;16.09;72.58
10806;BME280;5455;53.224;6.000;2023-05-29T12:15:04;102822.19;;;16.18;69.98
10806;BME280;5455;53.224;6.000;2023-05-29T12:17:34;102825.09;;;15.73;70.18
10806;BME280;5455;53.224;6.000;2023-05-29T12:20:03;102823.31;;;15.68;68.52
10806;BME280;5455;53.224;6.000;2023-05-29T12:22:35;102826.78;;;15.65;70.88
10806;BME280;5455;53.224;6.000;2023-05-29T12:25:12;102818.38;;;15.86;71.29
10806;BME280;5455;53.224;6.000;2023-05-29T12:27:41;102836.81;;;16.03;69.07
10806;BME280;5455;53.224;6.000;2023-05-29T12:30:10;102830.53;;;15.93;69.64
10806;BME280;5455;53.224;6.000;2023-05-29T12:32:48;102840.28;;;16.24;69.48
10806;BME280;5455;53.224;6.000;2023-05-29T12:35:23;102825.56;;;15.99;70.15
10806;BME280;5455;53.224;6.000;2023-05-29T12:40:23;102815.91;;;16.33;72.00
10806;BME280;5455;53.224;6.000;2023-05-29T12:45:26;102827.84;;;16.45;69.91
10806;BME280;5455;53.224;6.000;2023-05-29T12:47:58;102832.75;;;16.24;69.61
10806;BME280;5455;53.224;6.000;2023-05-29T12:50:29;102824.97;;;16.30;69.02
10806;BME280;5455;53.224;6.000;2023-05-29T12:55:30;102827.84;;;16.45;71.70
10806;BME280;5455;53.224;6.000;2023-05-29T12:58:00;102836.56;;;16.20;69.57
10806;BME280;5455;53.224;6.000;2023-05-29T13:00:27;102826.34;;;16.60;71.18
10806;BME280;5455;53.224;6.000;2023-05-29T13:02:54;102831.78;;;16.69;69.82
10806;BME280;5455;53.224;6.000;2023-05-29T13:05:21;102836.56;;;16.96;71.14
10806;BME280;5455;53.224;6.000;2023-05-29T13:07:50;102837.81;;;16.34;67.33
10806;BME280;5455;53.224;6.000;2023-05-29T13:10:18;102824.53;;;15.91;70.85
10806;BME280;5455;53.224;6.000;2023-05-29T13:12:46;102834.16;;;16.18;70.96
10806;BME280;5455;53.224;6.000;2023-05-29T13:15:14;102838.19;;;16.09;69.15
10806;BME280;5455;53.224;6.000;2023-05-29T13:17:41;102840.16;;;15.72;71.37
10806;BME280;5455;53.224;6.000;2023-05-29T13:20:10;102831.56;;;15.65;72.81
10806;BME280;5455;53.224;6.000;2023-05-29T13:22:41;102834.00;;;15.66;70.54
10806;BME280;5455;53.224;6.000;2023-05-29T13:25:11;102826.59;;;15.70;72.50
10806;BME280;5455;53.224;6.000;2023-05-29T13:27:40;102826.59;;;15.82;70.48
10806;BME280;5455;53.224;6.000;2023-05-29T13:30:09;102826.38;;;15.99;70.87
10806;BME280;5455;53.224;6.000;2023-05-29T13:32:36;102829.97;;;16.36;70.11
10806;BME280;5455;53.224;6.000;2023-05-29T13:35:04;102836.94;;;16.06;67.65
10806;BME280;5455;53.224;6.000;2023-05-29T13:37:32;102841.41;;;15.62;67.71